Time;durP1;ratioP1;P1;durP2;ratioP2;P2;SDS_P1;SDS_P2;PMS_P1;PMS_P2;Temp;Humidity;BMP_temperature;BMP_pressure;BME280_temperature;BME280_humidity;BME280_pressure;Samples;Min_cycle;Max_cycle;Signal;HPM_P1;HPM_P2
2023/07/23 00:00:26;;;;;;;1999.90;999.90;;;14.40;99.90;;;;;;5046736;28;20363;-70
2023/07/23 00:02:52;;;;;;;1999.90;999.90;;;14.40;99.90;;;;;;5046872;28;20083;-70
2023/07/23 00:05:17;;;;;;;1999.90;999.90;;;14.40;99.90;;;;;;5047483;28;20540;-70
2023/07/23 00:07:43;;;;;;;1999.90;999.90;;;14.40;99.90;;;;;;5036235;28;20147;-70
2023/07/23 00:10:09;;;;;;;1999.90;999.90;;;14.40;99.90;;;;;;5028514;28;20047;-70
2023/07/23 00:12:36;;;;;;;1999.90;999.90;;;14.40;99.90;;;;;;5019653;28;20489;-70
2023/07/23 00:15:02;;;;;;;1999.90;999.90;;;14.30;99.90;;;;;;5024238;28;20053;-70
2023/07/23 00:17:28;;;;;;;1999.90;999.90;;;14.40;99.90;;;;;;5043438;28;20037;-70
2023/07/23 00:19:54;;;;;;;1999.90;999.90;;;14.30;99.90;;;;;;5034918;28;20040;-70
2023/07/23 00:22:19;;;;;;;1999.90;999.90;;;14.40;99.90;;;;;;5038746;28;20029;-70
2023/07/23 00:24:45;;;;;;;1999.90;999.90;;;14.30;99.90;;;;;;5046495;28;20140;-70
2023/07/23 00:27:13;;;;;;;1999.90;999.90;;;14.30;99.90;;;;;;5037718;28;20049;-70
2023/07/23 00:29:42;;;;;;;1999.90;999.90;;;14.30;99.90;;;;;;5041217;28;20045;-70
2023/07/23 00:32:08;;;;;;;1999.90;999.90;;;14.30;99.90;;;;;;5023677;28;20120;-70
2023/07/23 00:34:34;;;;;;;1999.90;999.90;;;14.30;99.90;;;;;;5038977;28;20116;-70
2023/07/23 00:37:00;;;;;;;1999.90;999.90;;;14.30;99.90;;;;;;5038266;28;20044;-70
2023/07/23 00:39:26;;;;;;;1999.90;999.90;;;14.30;99.90;;;;;;5037362;28;20114;-70
2023/07/23 00:41:52;;;;;;;1999.90;999.90;;;14.30;99.90;;;;;;5046452;28;20114;-70
2023/07/23 00:44:17;;;;;;;1999.90;999.90;;;14.30;99.90;;;;;;5051017;28;20033;-71
2023/07/23 00:46:43;;;;;;;1999.90;999.90;;;14.20;99.90;;;;;;5026956;28;20106;-70
2023/07/23 00:49:11;;;;;;;1999.90;999.90;;;14.30;99.90;;;;;;5045909;28;20149;-70
2023/07/23 00:51:38;;;;;;;1999.90;999.90;;;14.20;99.90;;;;;;5046636;28;20048;-70
2023/07/23 00:54:04;;;;;;;1999.90;999.90;;;14.20;99.90;;;;;;5029088;28;20044;-70
2023/07/23 00:56:30;;;;;;;1999.90;999.90;;;14.20;99.90;;;;;;5037458;28;20307;-70
2023/07/23 00:58:57;;;;;;;1999.90;999.90;;;14.20;99.90;;;;;;5042890;28;20051;-70
2023/07/23 01:01:23;;;;;;;1999.90;999.90;;;14.30;99.90;;;;;;5021478;28;20049;-70
2023/07/23 01:03:50;;;;;;;1999.90;999.90;;;14.20;99.90;;;;;;5036372;28;20045;-71
2023/07/23 01:06:18;;;;;;;1999.90;999.90;;;14.20;99.90;;;;;;5045871;28;20053;-70
2023/07/23 01:08:45;;;;;;;1999.90;999.90;;;14.30;99.90;;;;;;5027223;28;20611;-70
2023/07/23 01:11:11;;;;;;;1999.90;999.90;;;14.30;99.90;;;;;;5019915;28;20049;-70
2023/07/23 01:13:38;;;;;;;1999.90;999.90;;;14.20;99.90;;;;;;5015445;28;20037;-70
2023/07/23 01:16:09;;;;;;;1999.90;999.90;;;14.20;99.90;;;;;;5030039;28;20051;-70
2023/07/23 01:18:40;;;;;;;1999.90;999.90;;;14.20;99.90;;;;;;5033033;28;20413;-70
2023/07/23 01:21:06;;;;;;;1999.90;999.90;;;14.20;99.90;;;;;;5032933;28;20090;-70
2023/07/23 01:23:32;;;;;;;1999.90;999.90;;;14.30;99.90;;;;;;5045526;28;20049;-70
2023/07/23 01:25:58;;;;;;;1999.90;999.90;;;14.30;99.90;;;;;;5017680;28;20037;-71
2023/07/23 01:28:24;;;;;;;1999.90;999.90;;;14.20;99.90;;;;;;5028447;28;20036;-70
2023/07/23 01:30:50;;;;;;;1999.90;999.90;;;14.20;99.90;;;;;;5046126;28;20153;-70
2023/07/23 01:33:16;;;;;;;1999.90;999.90;;;14.20;99.90;;;;;;5028063;28;20049;-70
2023/07/23 01:35:44;;;;;;;1999.90;999.90;;;14.30;99.90;;;;;;5045185;28;20049;-70
2023/07/23 01:38:11;;;;;;;1999.90;999.90;;;14.30;99.90;;;;;;5035295;28;20056;-69
2023/07/23 01:40:37;;;;;;;1999.90;999.90;;;14.30;99.90;;;;;;5029243;28;20045;-69
2023/07/23 01:43:03;;;;;;;1999.90;999.90;;;14.30;99.90;;;;;;5041447;28;20103;-70
2023/07/23 01:45:29;;;;;;;1999.90;999.90;;;14.30;99.90;;;;;;5042783;28;20405;-70
2023/07/23 01:47:55;;;;;;;1999.90;999.90;;;14.30;99.90;;;;;;5042345;28;20033;-69
2023/07/23 01:50:20;;;;;;;1999.90;999.90;;;14.30;99.90;;;;;;5046585;28;20098;-70
2023/07/23 01:52:46;;;;;;;1999.90;999.90;;;14.30;99.90;;;;;;5040753;28;20041;-70
2023/07/23 01:55:12;;;;;;;1999.90;999.90;;;14.30;99.90;;;;;;5028941;28;20497;-69
2023/07/23 01:57:38;;;;;;;1999.90;999.90;;;14.30;99.90;;;;;;5045241;28;20049;-69
2023/07/23 02:00:04;;;;;;;1999.90;999.90;;;14.30;99.90;;;;;;5028404;28;20037;-70
2023/07/23 02:02:30;;;;;;;1999.90;999.90;;;14.30;99.90;;;;;;5045281;28;20033;-69
2023/07/23 02:04:55;;;;;;;1999.90;999.90;;;14.30;99.90;;;;;;5020961;28;20496;-69
2023/07/23 02:07:21;;;;;;;1999.90;999.90;;;14.30;99.90;;;;;;5045273;28;20048;-69
2023/07/23 02:09:50;;;;;;;1999.90;999.90;;;14.30;99.90;;;;;;5025421;28;20095;-70
2023/07/23 02:12:16;;;;;;;1999.90;999.90;;;14.30;99.90;;;;;;5031161;28;20072;-69
2023/07/23 02:14:41;;;;;;;1999.90;999.90;;;14.30;99.90;;;;;;5044387;28;20513;-69
2023/07/23 02:17:07;;;;;;;1999.90;999.90;;;14.30;99.90;;;;;;5043309;28;20044;-70
2023/07/23 02:19:33;;;;;;;1999.90;999.90;;;14.30;99.90;;;;;;5044024;28;20045;-70
2023/07/23 02:21:59;;;;;;;1999.90;999.90;;;14.30;99.90;;;;;;5033704;28;20121;-69
2023/07/23 02:24:24;;;;;;;1999.90;999.90;;;14.30;99.90;;;;;;5047569;28;20048;-70
2023/07/23 02:26:50;;;;;;;1999.90;999.90;;;14.30;99.90;;;;;;5049297;28;20048;-70
2023/07/23 02:29:15;;;;;;;1999.90;999.90;;;14.30;99.90;;;;;;5037820;28;20048;-70
2023/07/23 02:31:41;;;;;;;1999.90;999.90;;;14.30;99.90;;;;;;5036680;28;20045;-69
2023/07/23 02:34:07;;;;;;;1999.90;999.90;;;14.30;99.90;;;;;;5038989;28;20493;-70
2023/07/23 02:36:34;;;;;;;1999.90;999.90;;;14.30;99.90;;;;;;5041679;28;20048;-69
2023/07/23 02:39:00;;;;;;;1999.90;999.90;;;14.30;99.90;;;;;;5043872;28;20067;-70
2023/07/23 02:41:26;;;;;;;1999.90;999.90;;;14.20;99.90;;;;;;5033980;28;20500;-70
2023/07/23 02:43:53;;;;;;;1999.90;999.90;;;14.20;99.90;;;;;;5041729;28;20080;-70
2023/07/23 02:46:18;;;;;;;1999.90;999.90;;;14.20;99.90;;;;;;5048315;28;20040;-70
2023/07/23 02:48:44;;;;;;;1999.90;999.90;;;14.20;99.90;;;;;;5023625;28;20045;-70
2023/07/23 02:51:10;;;;;;;1999.90;999.90;;;14.30;99.90;;;;;;5046450;28;20469;-70
2023/07/23 02:53:35;;;;;;;1999.90;999.90;;;14.20;99.90;;;;;;5021411;28;20047;-71
2023/07/23 02:56:01;;;;;;;1999.90;999.90;;;14.30;99.90;;;;;;5041145;28;20049;-70
2023/07/23 02:58:27;;;;;;;1999.90;999.90;;;14.30;99.90;;;;;;5048139;28;20067;-70
2023/07/23 03:00:55;;;;;;;1999.90;999.90;;;14.30;99.90;;;;;;5026333;28;20041;-70
2023/07/23 03:03:21;;;;;;;1999.90;999.90;;;14.20;99.90;;;;;;5041800;28;20049;-69
2023/07/23 03:05:46;;;;;;;1999.90;999.90;;;14.30;99.90;;;;;;5029219;28;20061;-70
2023/07/23 03:08:12;;;;;;;1999.90;999.90;;;14.30;99.90;;;;;;5025032;28;20041;-70
2023/07/23 03:10:40;;;;;;;1999.90;999.90;;;14.20;99.90;;;;;;5025193;28;20048;-70
2023/07/23 03:13:06;;;;;;;1999.90;999.90;;;14.30;99.90;;;;;;5031545;28;20076;-70
2023/07/23 03:15:32;;;;;;;1999.90;999.90;;;14.30;99.90;;;;;;5042960;28;20543;-70
2023/07/23 03:17:57;;;;;;;1999.90;999.90;;;14.30;99.90;;;;;;5031774;28;20467;-70
2023/07/23 03:20:23;;;;;;;1999.90;999.90;;;14.30;99.90;;;;;;5044202;28;20413;-69
2023/07/23 03:22:48;;;;;;;1999.90;999.90;;;14.30;99.90;;;;;;5055712;28;20076;-70
2023/07/23 03:25:16;;;;;;;1999.90;999.90;;;14.30;99.90;;;;;;5049511;28;20033;-70
2023/07/23 03:27:43;;;;;;;1999.90;999.90;;;14.30;99.90;;;;;;5048050;28;20523;-70
2023/07/23 03:30:09;;;;;;;1999.90;999.90;;;14.30;99.90;;;;;;5048283;28;20465;-70
2023/07/23 03:32:35;;;;;;;1999.90;999.90;;;14.30;99.90;;;;;;5047182;28;20448;-70
2023/07/23 03:35:01;;;;;;;1999.90;999.90;;;14.30;99.90;;;;;;5064022;28;20048;-70
2023/07/23 03:37:26;;;;;;;1999.90;999.90;;;14.30;99.90;;;;;;5046057;28;20032;-70
2023/07/23 03:39:52;;;;;;;1999.90;999.90;;;14.30;99.90;;;;;;5030336;28;20029;-70
2023/07/23 03:42:17;;;;;;;1999.90;999.90;;;14.30;99.90;;;;;;5045948;28;20041;-70
2023/07/23 03:44:43;;;;;;;1999.90;999.90;;;14.30;99.90;;;;;;5036087;28;20123;-70
2023/07/23 03:47:16;;;;;;;1999.90;999.90;;;14.30;99.90;;;;;;5030083;28;20049;-70
2023/07/23 03:49:42;;;;;;;1999.90;999.90;;;14.30;99.90;;;;;;5019481;28;20056;-70
2023/07/23 03:52:08;;;;;;;1999.90;999.90;;;14.30;99.90;;;;;;5047297;28;20049;-70
2023/07/23 03:54:34;;;;;;;1999.90;999.90;;;14.30;99.90;;;;;;5042605;28;20045;-70
2023/07/23 03:57:00;;;;;;;1999.90;999.90;;;14.30;99.90;;;;;;5037378;28;20056;-70
2023/07/23 03:59:41;;;;;;;1999.90;999.90;;;14.20;99.90;;;;;;5017040;28;20120;-70
2023/07/23 04:02:07;;;;;;;1999.90;999.90;;;14.30;99.90;;;;;;5038093;28;20038;-70
2023/07/23 04:04:34;;;;;;;1999.90;999.90;;;14.30;99.90;;;;;;5046498;28;20041;-70
2023/07/23 04:07:00;;;;;;;1999.90;999.90;;;14.30;99.90;;;;;;5029216;28;20211;-70
2023/07/23 04:09:25;;;;;;;1999.90;999.90;;;14.30;99.90;;;;;;5027193;28;20493;-70
2023/07/23 04:11:51;;;;;;;1999.90;999.90;;;14.30;99.90;;;;;;5025684;28;20049;-70
2023/07/23 04:14:17;;;;;;;1999.90;999.90;;;14.30;99.90;;;;;;5041957;28;20087;-70
2023/07/23 04:16:42;;;;;;;1999.90;999.90;;;14.30;99.90;;;;;;5038747;28;20041;-70
2023/07/23 04:19:08;;;;;;;1999.90;999.90;;;14.30;99.90;;;;;;5033715;28;20156;-70
2023/07/23 04:21:34;;;;;;;1999.90;999.90;;;14.30;99.90;;;;;;5042549;28;20048;-70
2023/07/23 04:24:00;;;;;;;1999.90;999.90;;;14.30;99.90;;;;;;5044074;28;20123;-70
2023/07/23 04:26:27;;;;;;;1999.90;999.90;;;14.30;99.90;;;;;;5030620;28;20033;-70
2023/07/23 04:28:53;;;;;;;1999.90;999.90;;;14.30;99.90;;;;;;5035782;28;20037;-70
2023/07/23 04:31:19;;;;;;;1999.90;999.90;;;14.30;99.90;;;;;;5028055;28;20042;-70
2023/07/23 04:33:45;;;;;;;1999.90;999.90;;;14.30;99.90;;;;;;5019008;28;20576;-70
2023/07/23 04:36:12;;;;;;;1999.90;999.90;;;14.30;99.90;;;;;;5043701;28;20136;-70
2023/07/23 04:38:38;;;;;;;1999.90;999.90;;;14.30;99.90;;;;;;5022400;28;20049;-70
2023/07/23 04:41:04;;;;;;;1999.90;999.90;;;14.30;99.90;;;;;;5045906;28;20040;-70
2023/07/23 04:43:30;;;;;;;1999.90;999.90;;;14.30;99.90;;;;;;5046039;28;20041;-70
2023/07/23 04:45:56;;;;;;;1999.90;999.90;;;14.40;99.90;;;;;;5043469;28;20037;-70
2023/07/23 04:48:21;;;;;;;1999.90;999.90;;;14.40;99.90;;;;;;5036050;28;20071;-70
2023/07/23 04:50:55;;;;;;;1999.90;999.90;;;14.40;99.90;;;;;;5027977;28;20476;-70
2023/07/23 04:53:23;;;;;;;1999.90;999.90;;;14.40;99.90;;;;;;5021657;28;20160;-70
2023/07/23 04:55:51;;;;;;;1999.90;999.90;;;14.40;99.90;;;;;;5041136;28;20404;-70
2023/07/23 04:58:16;;;;;;;1999.90;999.90;;;14.40;99.90;;;;;;5033916;28;20531;-70
2023/07/23 05:00:42;;;;;;;1999.90;999.90;;;14.40;99.90;;;;;;5023484;28;20123;-70
2023/07/23 05:03:08;;;;;;;1999.90;999.90;;;14.40;99.90;;;;;;5045514;28;20040;-70
2023/07/23 05:05:33;;;;;;;1999.90;999.90;;;14.40;99.90;;;;;;5045689;28;20517;-70
2023/07/23 05:07:59;;;;;;;1999.90;999.90;;;14.40;99.90;;;;;;5038623;28;20056;-70
2023/07/23 05:10:24;;;;;;;1999.90;999.90;;;14.40;99.90;;;;;;5018706;28;20410;-70
2023/07/23 05:12:50;;;;;;;1999.90;999.90;;;14.50;99.90;;;;;;5045440;28;20127;-70
2023/07/23 05:15:16;;;;;;;1999.90;999.90;;;14.40;99.90;;;;;;5030132;28;20040;-70
2023/07/23 05:17:42;;;;;;;1999.90;999.90;;;14.40;99.90;;;;;;5045677;28;20079;-70
2023/07/23 05:20:09;;;;;;;1999.90;999.90;;;14.40;99.90;;;;;;5046883;28;20397;-70
2023/07/23 05:22:39;;;;;;;1999.90;999.90;;;14.50;99.90;;;;;;5013329;28;20371;-70
2023/07/23 05:25:05;;;;;;;1999.90;999.90;;;14.50;99.90;;;;;;5044949;28;20044;-70
2023/07/23 05:27:32;;;;;;;1999.90;999.90;;;14.50;99.90;;;;;;5042447;28;20401;-70
2023/07/23 05:29:57;;;;;;;1999.90;999.90;;;14.50;99.90;;;;;;5045871;28;20045;-70
2023/07/23 05:32:23;;;;;;;1999.90;999.90;;;14.60;99.90;;;;;;5045066;28;20549;-70
2023/07/23 05:34:49;;;;;;;1999.90;999.90;;;14.60;99.90;;;;;;5032957;28;20056;-69
2023/07/23 05:37:14;;;;;;;1999.90;999.90;;;14.60;99.90;;;;;;5045786;28;20036;-70
2023/07/23 05:39:40;;;;;;;1999.90;999.90;;;14.60;99.90;;;;;;5022320;28;20033;-70
2023/07/23 05:42:06;;;;;;;1999.90;999.90;;;14.60;99.90;;;;;;5045900;28;20099;-70
2023/07/23 05:44:32;;;;;;;1999.90;999.90;;;14.60;99.90;;;;;;5027076;28;20045;-70
2023/07/23 05:46:58;;;;;;;1999.90;999.90;;;14.60;99.90;;;;;;5046414;28;20048;-70
2023/07/23 05:49:24;;;;;;;1999.90;999.90;;;14.60;99.90;;;;;;5034397;28;20528;-70
2023/07/23 05:51:51;;;;;;;1999.90;999.90;;;14.60;99.90;;;;;;5046845;28;20562;-70
2023/07/23 05:54:17;;;;;;;1999.90;999.90;;;14.70;99.90;;;;;;5040829;28;20052;-70
2023/07/23 05:56:43;;;;;;;1999.90;999.90;;;14.70;99.90;;;;;;5018528;28;20072;-70
2023/07/23 05:59:08;;;;;;;1999.90;999.90;;;14.70;99.90;;;;;;5046085;28;20033;-70
2023/07/23 06:01:35;;;;;;;1999.90;999.90;;;14.70;99.90;;;;;;5041917;28;20382;-70
2023/07/23 06:04:01;;;;;;;1999.90;999.90;;;14.70;99.90;;;;;;5040017;28;20029;-70
2023/07/23 06:06:26;;;;;;;1999.90;999.90;;;14.80;99.90;;;;;;5045565;28;20056;-70
2023/07/23 06:08:52;;;;;;;1999.90;999.90;;;14.80;99.90;;;;;;5043961;28;20790;-71
2023/07/23 06:11:17;;;;;;;1999.90;999.90;;;14.80;99.90;;;;;;5039369;28;20510;-70
2023/07/23 06:13:43;;;;;;;1999.90;999.90;;;14.80;99.90;;;;;;5039853;28;20037;-70
2023/07/23 06:16:09;;;;;;;1999.90;999.90;;;14.80;99.90;;;;;;5021080;28;20128;-70
2023/07/23 06:18:35;;;;;;;1999.90;999.90;;;14.90;99.90;;;;;;5042325;28;20072;-70
2023/07/23 06:21:02;;;;;;;1999.90;999.90;;;14.90;99.90;;;;;;5044153;28;20052;-70
2023/07/23 06:23:28;;;;;;;1999.90;999.90;;;15.00;99.90;;;;;;5047730;28;20482;-70
2023/07/23 06:25:57;;;;;;;1999.90;999.90;;;15.00;99.90;;;;;;5038384;28;20040;-70
2023/07/23 06:28:23;;;;;;;1999.90;999.90;;;15.00;99.90;;;;;;5027208;28;20056;-71
2023/07/23 06:30:55;;;;;;;1999.90;999.90;;;15.10;99.90;;;;;;5045967;28;20048;-70
2023/07/23 06:33:21;;;;;;;1999.90;999.90;;;15.10;99.90;;;;;;5028405;28;20124;-70
2023/07/23 06:35:48;;;;;;;1999.90;999.90;;;15.10;99.90;;;;;;5042873;28;20199;-70
2023/07/23 06:38:14;;;;;;;1999.90;999.90;;;15.20;99.90;;;;;;5041708;28;20501;-70
2023/07/23 06:40:55;;;;;;;1999.90;999.90;;;15.20;99.90;;;;;;5020604;28;20044;-71
2023/07/23 06:43:21;;;;;;;1999.90;999.90;;;15.30;99.90;;;;;;5022142;28;20537;-70
2023/07/23 06:45:50;;;;;;;1999.90;999.90;;;15.40;99.90;;;;;;5041963;28;20045;-70
2023/07/23 06:48:19;;;;;;;1999.90;999.90;;;15.40;99.90;;;;;;5048420;28;20509;-70
2023/07/23 06:50:45;;;;;;;1999.90;999.90;;;15.50;99.90;;;;;;5045766;28;20392;-71
2023/07/23 06:53:11;;;;;;;1999.90;999.90;;;15.60;99.90;;;;;;5048451;28;20048;-70
2023/07/23 06:55:57;;;;;;;1999.90;999.90;;;15.60;99.90;;;;;;5046837;28;20036;-70
2023/07/23 06:58:23;;;;;;;1999.90;999.90;;;15.70;99.90;;;;;;5048429;28;20041;-70
2023/07/23 07:00:48;;;;;;;1999.90;999.90;;;15.70;99.90;;;;;;5021100;28;20080;-70
2023/07/23 07:03:14;;;;;;;1999.90;999.90;;;15.80;99.90;;;;;;5042161;28;20055;-70
2023/07/23 07:05:40;;;;;;;1999.90;999.90;;;15.80;99.90;;;;;;5048868;28;20049;-70
2023/07/23 07:08:05;;;;;;;1999.90;999.90;;;15.70;99.90;;;;;;5043298;28;20064;-71
2023/07/23 07:10:31;;;;;;;1999.90;999.90;;;15.70;99.90;;;;;;5025643;28;20044;-71
2023/07/23 07:12:57;;;;;;;1999.90;999.90;;;15.60;99.90;;;;;;5058889;28;20096;-70
2023/07/23 07:15:22;;;;;;;1999.90;999.90;;;15.60;99.90;;;;;;5031512;28;20037;-70
2023/07/23 07:17:48;;;;;;;1999.90;999.90;;;15.60;99.90;;;;;;5046499;28;20052;-70
2023/07/23 07:20:14;;;;;;;1999.90;999.90;;;15.60;99.90;;;;;;5048448;28;20432;-70
2023/07/23 07:22:39;;;;;;;1999.90;999.90;;;15.60;99.90;;;;;;5045292;28;20098;-70
2023/07/23 07:25:05;;;;;;;1999.90;999.90;;;15.70;99.90;;;;;;5046246;28;20091;-70
2023/07/23 07:27:31;;;;;;;1999.90;999.90;;;15.70;99.90;;;;;;5039386;28;20057;-70
2023/07/23 07:29:56;;;;;;;1999.90;999.90;;;15.70;99.90;;;;;;5047604;28;20657;-70
2023/07/23 07:32:22;;;;;;;1999.90;999.90;;;15.70;99.90;;;;;;5047956;28;20081;-70
2023/07/23 07:34:48;;;;;;;1999.90;999.90;;;15.70;99.90;;;;;;5042093;28;20516;-70
2023/07/23 07:37:13;;;;;;;1999.90;999.90;;;15.80;99.90;;;;;;5025969;28;20046;-70
2023/07/23 07:39:40;;;;;;;1999.90;999.90;;;15.80;99.90;;;;;;5035719;28;20659;-71
2023/07/23 07:42:06;;;;;;;1999.90;999.90;;;15.80;99.90;;;;;;5039149;28;20080;-70
2023/07/23 07:44:32;;;;;;;1999.90;999.90;;;15.90;99.90;;;;;;5056803;28;20126;-70
2023/07/23 07:46:58;;;;;;;1999.90;999.90;;;15.90;99.90;;;;;;5043253;28;20490;-70
2023/07/23 07:49:24;;;;;;;1999.90;999.90;;;16.00;99.90;;;;;;5026497;28;20051;-70
2023/07/23 07:51:49;;;;;;;1999.90;999.90;;;16.00;99.90;;;;;;5044085;28;20076;-72
2023/07/23 07:54:15;;;;;;;1999.90;999.90;;;16.00;99.90;;;;;;5040174;28;20068;-70
2023/07/23 07:56:43;;;;;;;1999.90;999.90;;;15.90;99.90;;;;;;5056888;28;20603;-70
2023/07/23 07:59:09;;;;;;;1999.90;999.90;;;15.90;99.90;;;;;;5042038;28;20044;-70
2023/07/23 08:01:35;;;;;;;1999.90;999.90;;;15.90;99.90;;;;;;5015080;28;20068;-70
2023/07/23 08:04:02;;;;;;;1999.90;999.90;;;15.90;99.90;;;;;;5035541;28;20128;-70
2023/07/23 08:06:28;;;;;;;1999.90;999.90;;;15.90;99.90;;;;;;5042039;28;20049;-70
2023/07/23 08:08:58;;;;;;;1999.90;999.90;;;16.00;99.90;;;;;;5038479;28;20460;-69
2023/07/23 08:11:25;;;;;;;1999.90;999.90;;;16.00;99.90;;;;;;5042418;28;20044;-70
2023/07/23 08:13:51;;;;;;;1999.90;999.90;;;16.00;99.90;;;;;;5039012;28;20053;-70
2023/07/23 08:16:18;;;;;;;1999.90;999.90;;;16.10;99.90;;;;;;5041809;28;20398;-70
2023/07/23 08:18:44;;;;;;;1999.90;999.90;;;16.10;99.90;;;;;;5024292;28;20159;-69
2023/07/23 08:21:11;;;;;;;1999.90;999.90;;;16.10;99.90;;;;;;5040257;28;20816;-70
2023/07/23 08:23:37;;;;;;;1999.90;999.90;;;16.10;99.90;;;;;;5040636;28;20431;-70
2023/07/23 08:26:04;;;;;;;1999.90;999.90;;;16.20;99.90;;;;;;5029719;28;20037;-70
2023/07/23 08:28:36;;;;;;;1999.90;999.90;;;16.20;99.90;;;;;;5042572;28;20049;-70
2023/07/23 08:31:02;;;;;;;1999.90;999.90;;;16.10;99.90;;;;;;5042088;28;20075;-70
2023/07/23 08:33:30;;;;;;;1999.90;999.90;;;16.10;99.90;;;;;;5042825;28;20044;-71
2023/07/23 08:35:57;;;;;;;1999.90;999.90;;;16.10;99.90;;;;;;5021277;28;20102;-70
2023/07/23 08:38:24;;;;;;;1999.90;999.90;;;16.10;99.90;;;;;;5033488;28;20048;-70
2023/07/23 08:41:00;;;;;;;1999.90;999.90;;;16.10;99.90;;;;;;5030205;28;20047;-70
2023/07/23 08:43:48;;;;;;;1999.90;999.90;;;16.00;99.90;;;;;;5030975;28;20108;-70
2023/07/23 08:46:13;;;;;;;1999.90;999.90;;;16.00;99.90;;;;;;5024147;28;20036;-70
2023/07/23 08:48:54;;;;;;;1999.90;999.90;;;16.10;99.90;;;;;;5041617;28;20556;-70
2023/07/23 08:51:20;;;;;;;1999.90;999.90;;;16.10;99.90;;;;;;5023793;28;20045;-70
2023/07/23 08:53:48;;;;;;;1999.90;999.90;;;16.10;99.90;;;;;;5043131;28;20474;-70
2023/07/23 08:56:15;;;;;;;1999.90;999.90;;;16.10;99.90;;;;;;5025112;28;20048;-70
2023/07/23 08:58:43;;;;;;;1999.90;999.90;;;16.10;99.90;;;;;;5042132;28;20044;-70
2023/07/23 09:01:10;;;;;;;1999.90;999.90;;;16.10;99.90;;;;;;5036553;28;20040;-70
2023/07/23 09:03:36;;;;;;;1999.90;999.90;;;16.10;99.90;;;;;;5042074;28;20075;-70
2023/07/23 09:06:03;;;;;;;1999.90;999.90;;;16.10;99.90;;;;;;5040936;28;20127;-70
2023/07/23 09:08:28;;;;;;;1999.90;999.90;;;16.20;99.90;;;;;;5037059;28;20139;-70
2023/07/23 09:10:54;;;;;;;1999.90;999.90;;;16.10;99.90;;;;;;5016321;28;20076;-70
2023/07/23 09:13:19;;;;;;;1999.90;999.90;;;16.10;99.90;;;;;;5038910;28;20103;-70
2023/07/23 09:15:54;;;;;;;1999.90;999.90;;;16.10;99.90;;;;;;5040924;28;20120;-70
2023/07/23 09:18:20;;;;;;;1999.90;999.90;;;16.20;99.90;;;;;;5041087;28;20040;-69
2023/07/23 09:20:49;;;;;;;1999.90;999.90;;;16.20;99.90;;;;;;5031128;28;20056;-70
2023/07/23 09:23:15;;;;;;;1999.90;999.90;;;16.20;99.90;;;;;;5042134;28;20068;-70
2023/07/23 09:25:44;;;;;;;1999.90;999.90;;;16.20;99.90;;;;;;5043061;28;20071;-69
2023/07/23 09:28:20;;;;;;;1999.90;999.90;;;16.30;99.90;;;;;;5045934;28;20045;-70
2023/07/23 09:30:45;;;;;;;1999.90;999.90;;;16.30;99.90;;;;;;5038558;28;20045;-70
2023/07/23 09:33:12;;;;;;;1999.90;999.90;;;16.30;99.90;;;;;;5037310;28;20055;-70
2023/07/23 09:35:39;;;;;;;1999.90;999.90;;;16.30;99.90;;;;;;5045518;28;20190;-70
2023/07/23 09:38:05;;;;;;;1999.90;999.90;;;16.30;99.90;;;;;;5023424;28;20512;-70
2023/07/23 09:40:38;;;;;;;1999.90;999.90;;;16.30;99.90;;;;;;5045917;28;20041;-70
2023/07/23 09:43:04;;;;;;;1999.90;999.90;;;16.30;99.90;;;;;;5041397;28;20044;-70
2023/07/23 09:45:30;;;;;;;1999.90;999.90;;;16.30;99.90;;;;;;5045328;28;20049;-70
2023/07/23 09:47:58;;;;;;;1999.90;999.90;;;16.30;99.90;;;;;;5028757;28;20409;-70
2023/07/23 09:50:25;;;;;;;1999.90;999.90;;;16.40;99.90;;;;;;5050174;28;20049;-71
2023/07/23 09:52:51;;;;;;;1999.90;999.90;;;16.30;99.90;;;;;;5053046;28;20381;-70
2023/07/23 09:55:19;;;;;;;1999.90;999.90;;;16.30;99.90;;;;;;5041312;28;20116;-70
2023/07/23 09:57:48;;;;;;;1999.90;999.90;;;16.30;99.90;;;;;;5039098;28;20453;-70
2023/07/23 10:00:14;;;;;;;1999.90;999.90;;;16.30;99.90;;;;;;5032030;28;20041;-70
2023/07/23 10:02:43;;;;;;;1999.90;999.90;;;16.30;99.90;;;;;;5035054;28;20405;-71
2023/07/23 10:05:10;;;;;;;1999.90;999.90;;;16.20;99.90;;;;;;5042685;28;20045;-70
2023/07/23 10:07:39;;;;;;;1999.90;999.90;;;16.30;99.90;;;;;;5025478;28;20470;-70
2023/07/23 10:10:06;;;;;;;1999.90;999.90;;;16.30;99.90;;;;;;5039795;28;20044;-70
2023/07/23 10:12:31;;;;;;;1999.90;999.90;;;16.30;99.90;;;;;;5037362;28;20060;-70
2023/07/23 10:14:57;;;;;;;1999.90;999.90;;;16.30;99.90;;;;;;5016120;28;20052;-70
2023/07/23 10:17:24;;;;;;;1999.90;999.90;;;16.40;99.90;;;;;;5061819;28;20462;-70
2023/07/23 10:19:52;;;;;;;1999.90;999.90;;;16.40;99.90;;;;;;5042105;28;20120;-70
2023/07/23 10:22:18;;;;;;;1999.90;999.90;;;16.40;99.90;;;;;;5030038;28;20056;-70
2023/07/23 10:24:43;;;;;;;1999.90;999.90;;;16.40;99.90;;;;;;5014115;28;20036;-70
2023/07/23 10:27:14;;;;;;;1999.90;999.90;;;16.40;99.90;;;;;;5016677;28;20183;-70
2023/07/23 10:29:41;;;;;;;1999.90;999.90;;;16.50;99.90;;;;;;5041077;28;20040;-71
2023/07/23 10:32:24;;;;;;;1999.90;999.90;;;16.40;99.90;;;;;;5032846;28;20041;-70
2023/07/23 10:34:50;;;;;;;1999.90;999.90;;;16.50;99.90;;;;;;5019867;28;20041;-71
2023/07/23 10:37:21;;;;;;;1999.90;999.90;;;16.50;99.90;;;;;;5040534;28;20087;-71
2023/07/23 10:39:52;;;;;;;1999.90;999.90;;;16.60;99.90;;;;;;5043370;28;20446;-71
2023/07/23 10:42:41;;;;;;;1999.90;999.90;;;16.60;99.90;;;;;;5056455;28;20771;-71
2023/07/23 10:45:28;;;;;;;1999.90;999.90;;;16.60;99.90;;;;;;5033023;28;20084;-71
2023/07/23 10:47:58;;;;;;;1999.90;999.90;;;16.60;99.90;;;;;;5052384;28;20233;-70
2023/07/23 10:50:24;;;;;;;1999.90;999.90;;;16.70;99.90;;;;;;5046851;28;20041;-71
2023/07/23 10:53:03;;;;;;;1999.90;999.90;;;16.70;99.90;;;;;;5035144;28;20048;-71
2023/07/23 10:55:42;;;;;;;1999.90;999.90;;;16.80;99.90;;;;;;5058392;28;20092;-71
2023/07/23 10:58:12;;;;;;;1999.90;999.90;;;16.80;99.90;;;;;;5048696;28;20616;-71
2023/07/23 11:00:45;;;;;;;1999.90;999.90;;;16.90;99.90;;;;;;5040927;28;20147;-71
2023/07/23 11:03:18;;;;;;;1999.90;999.90;;;16.90;99.90;;;;;;5033733;28;20045;-71
2023/07/23 11:05:45;;;;;;;1999.90;999.90;;;16.90;99.90;;;;;;5042424;28;20049;-70
2023/07/23 11:08:23;;;;;;;1999.90;999.90;;;17.00;99.90;;;;;;5050445;28;20045;-71
2023/07/23 11:11:02;;;;;;;1999.90;999.90;;;17.00;99.90;;;;;;5039874;28;20041;-71
2023/07/23 11:13:32;;;;;;;1999.90;999.90;;;17.00;99.90;;;;;;5026573;28;20098;-71
2023/07/23 11:15:58;;;;;;;1999.90;999.90;;;17.00;99.90;;;;;;5042708;28;20045;-71
2023/07/23 11:18:25;;;;;;;1999.90;999.90;;;17.10;99.90;;;;;;5036695;28;20036;-70
2023/07/23 11:20:52;;;;;;;1999.90;999.90;;;17.10;99.90;;;;;;5036368;28;20040;-71
2023/07/23 11:23:20;;;;;;;1999.90;999.90;;;17.20;99.90;;;;;;5037161;28;20041;-71
2023/07/23 11:25:47;;;;;;;1999.90;999.90;;;17.10;99.90;;;;;;5056868;28;20036;-71
2023/07/23 11:28:16;;;;;;;1999.90;999.90;;;17.10;99.90;;;;;;5024296;28;20103;-71
2023/07/23 11:30:42;;;;;;;1999.90;999.90;;;17.10;99.90;;;;;;5020670;28;20041;-71
2023/07/23 11:33:08;;;;;;;1999.90;999.90;;;17.10;99.90;;;;;;5037890;28;20094;-71
2023/07/23 11:35:34;;;;;;;1999.90;999.90;;;17.10;99.90;;;;;;5052738;28;20051;-71
2023/07/23 11:38:02;;;;;;;1999.90;999.90;;;17.10;99.90;;;;;;5031658;28;20053;-71
2023/07/23 11:40:28;;;;;;;1999.90;999.90;;;17.10;99.90;;;;;;5044001;28;20041;-71
2023/07/23 11:42:53;;;;;;;1999.90;999.90;;;17.00;99.90;;;;;;5044038;28;20140;-71
2023/07/23 11:45:20;;;;;;;1999.90;999.90;;;17.00;99.90;;;;;;5029745;28;20670;-71
2023/07/23 11:47:51;;;;;;;1999.90;999.90;;;17.00;99.90;;;;;;5048682;28;20043;-71
2023/07/23 11:50:18;;;;;;;1999.90;999.90;;;17.00;99.90;;;;;;5045236;28;20132;-71
2023/07/23 11:52:46;;;;;;;1999.90;999.90;;;17.00;99.90;;;;;;5049951;28;20047;-70
2023/07/23 11:55:22;;;;;;;1999.90;999.90;;;17.00;99.90;;;;;;5020724;28;20559;-71
2023/07/23 11:57:52;;;;;;;1999.90;999.90;;;17.10;99.90;;;;;;5044808;28;20069;-71